createdAt,value
2022-11-18T00:01:36.467Z,7.60
2022-11-18T00:04:07.425Z,6.89
2022-11-18T00:06:38.070Z,5.69
2022-11-18T00:09:08.601Z,5.67
2022-11-18T00:11:57.033Z,6.39
2022-11-18T00:14:27.758Z,7.06
2022-11-18T00:16:59.797Z,7.22
2022-11-18T00:19:30.783Z,7.39
2022-11-18T00:22:01.436Z,7.15
2022-11-18T00:24:32.238Z,6.08
2022-11-18T00:27:02.764Z,5.48
2022-11-18T00:29:33.410Z,6.36
2022-11-18T00:32:04.072Z,6.93
2022-11-18T00:34:34.524Z,7.30
2022-11-18T00:37:05.526Z,6.22
2022-11-18T00:39:37.729Z,5.40
2022-11-18T00:42:26.824Z,6.02
2022-11-18T00:44:57.658Z,6.90
2022-11-18T00:47:28.125Z,7.34
2022-11-18T00:49:58.922Z,6.30
2022-11-18T00:52:29.751Z,5.37
2022-11-18T00:55:00.722Z,5.94
2022-11-18T00:57:31.369Z,6.80
2022-11-18T01:00:02.061Z,7.46
2022-11-18T01:02:32.784Z,7.35
2022-11-18T01:05:03.325Z,6.07
2022-11-18T01:07:33.954Z,5.64
2022-11-18T01:10:04.791Z,6.42
2022-11-18T01:12:54.501Z,7.07
2022-11-18T01:15:25.247Z,7.29
2022-11-18T01:17:56.488Z,6.15
2022-11-18T01:20:27.061Z,5.59
2022-11-18T01:22:57.807Z,6.40
2022-11-18T01:25:28.578Z,7.14
2022-11-18T01:27:59.364Z,6.60
2022-11-18T01:30:30.414Z,5.56
2022-11-18T01:33:00.933Z,6.04
2022-11-18T01:35:35.295Z,6.37
2022-11-18T01:38:06.720Z,6.50
2022-11-18T01:40:37.829Z,6.82
2022-11-18T01:43:12.992Z,7.07
2022-11-18T01:45:44.147Z,7.28
2022-11-18T01:48:20.609Z,5.97
2022-11-18T01:50:54.403Z,5.12
2022-11-18T01:53:27.479Z,5.76
2022-11-18T01:55:59.512Z,6.62
2022-11-18T01:58:32.254Z,7.22
2022-11-18T02:01:03.725Z,6.15
2022-11-18T02:03:34.437Z,5.10
2022-11-18T02:06:06.315Z,5.71
2022-11-18T02:08:39.491Z,6.58
2022-11-18T02:11:33.434Z,6.86
2022-11-18T02:14:05.402Z,5.91
2022-11-18T02:16:40.085Z,4.94
2022-11-18T02:19:16.755Z,4.63
2022-11-18T02:21:54.803Z,5.49
2022-11-18T02:24:32.914Z,6.22
2022-11-18T02:27:21.459Z,6.74
2022-11-18T02:29:54.183Z,7.11
2022-11-18T02:32:26.583Z,6.51
2022-11-18T02:35:01.745Z,5.38
2022-11-18T02:37:34.926Z,4.71
2022-11-18T02:40:09.058Z,5.35
2022-11-18T02:42:41.881Z,5.93
2022-11-18T02:45:16.771Z,6.36
2022-11-18T02:47:49.140Z,7.09
2022-11-18T02:50:22.640Z,7.50
2022-11-18T02:52:54.854Z,7.88
2022-11-18T02:55:27.173Z,7.91
2022-11-18T02:57:58.455Z,6.72
2022-11-18T03:00:29.480Z,5.48
2022-11-18T03:03:00.504Z,4.92
2022-11-18T03:05:38.001Z,5.70
2022-11-18T03:08:10.137Z,6.55
2022-11-18T03:10:44.446Z,7.01
2022-11-18T03:13:20.053Z,7.38
2022-11-18T03:15:53.729Z,7.90
2022-11-18T03:18:28.936Z,7.88
2022-11-18T03:21:02.674Z,6.53
2022-11-18T03:23:35.644Z,5.49
2022-11-18T03:26:08.541Z,6.18
2022-11-18T03:28:42.064Z,7.07
2022-11-18T03:31:15.663Z,7.50
2022-11-18T03:33:49.036Z,7.80
2022-11-18T03:36:22.255Z,7.90
2022-11-18T03:38:51.425Z,6.46
2022-11-18T03:41:22.981Z,5.18
2022-11-18T03:43:58.265Z,4.98
2022-11-18T03:46:32.015Z,5.94
2022-11-18T03:49:02.649Z,6.43
2022-11-18T03:51:35.948Z,6.76
2022-11-18T03:54:10.163Z,7.12
2022-11-18T03:56:42.426Z,7.60
2022-11-18T03:59:14.893Z,7.60
2022-11-18T04:01:47.196Z,6.66
2022-11-18T04:04:17.801Z,5.41
2022-11-18T04:06:49.651Z,4.64
2022-11-18T04:09:22.433Z,5.08
2022-11-18T04:12:06.026Z,6.02
2022-11-18T04:14:35.132Z,6.56
2022-11-18T04:17:08.988Z,6.93
2022-11-18T04:19:41.175Z,7.37
2022-11-18T04:22:12.284Z,7.50
2022-11-18T04:24:42.726Z,6.79
2022-11-18T04:27:13.996Z,5.50
2022-11-18T04:29:44.615Z,5.50
2022-11-18T04:32:15.413Z,6.07
2022-11-18T04:34:45.979Z,6.40
2022-11-18T04:37:16.783Z,6.99
2022-11-18T04:39:47.410Z,7.16
2022-11-18T04:42:18.142Z,7.13
2022-11-18T04:44:48.784Z,7.24
2022-11-18T04:47:19.255Z,7.40
2022-11-18T04:49:50.034Z,7.22
2022-11-18T04:52:20.811Z,6.04
2022-11-18T04:54:51.397Z,5.03
2022-11-18T04:57:22.234Z,5.52
2022-11-18T04:59:52.864Z,6.20
2022-11-18T05:02:23.399Z,6.72
2022-11-18T05:04:54.127Z,6.92
2022-11-18T05:07:24.813Z,7.01
2022-11-18T05:09:55.489Z,7.02
2022-11-18T05:12:43.943Z,7.40
2022-11-18T05:15:14.733Z,7.09
2022-11-18T05:17:45.274Z,5.69
2022-11-18T05:20:16.244Z,4.84
2022-11-18T05:22:47.271Z,5.43
2022-11-18T05:25:18.766Z,6.19
2022-11-18T05:27:49.437Z,6.74
2022-11-18T05:30:20.542Z,7.03
2022-11-18T05:32:51.048Z,7.57
2022-11-18T05:35:21.480Z,6.30
2022-11-18T05:37:51.856Z,5.13
2022-11-18T05:40:22.824Z,5.56
2022-11-18T05:43:10.694Z,6.02
2022-11-18T05:45:42.212Z,6.63
2022-11-18T05:48:12.649Z,6.62
2022-11-18T05:50:43.403Z,7.19
2022-11-18T05:53:14.320Z,6.94
2022-11-18T05:55:49.555Z,5.69
2022-11-18T05:58:19.976Z,5.71
2022-11-18T06:00:51.932Z,6.36
2022-11-18T06:03:30.477Z,6.67
2022-11-18T06:06:03.102Z,6.68
2022-11-18T06:08:35.468Z,7.09
2022-11-18T06:11:07.055Z,7.51
2022-11-18T06:13:41.062Z,7.23
2022-11-18T06:16:13.639Z,5.73
2022-11-18T06:18:43.934Z,5.69
2022-11-18T06:21:14.708Z,6.21
2022-11-18T06:23:45.525Z,6.64
2022-11-18T06:26:16.803Z,7.14
2022-11-18T06:28:48.228Z,7.48
2022-11-18T06:31:18.937Z,6.67
2022-11-18T06:33:49.382Z,5.45
2022-11-18T06:36:19.912Z,6.08
2022-11-18T06:38:50.344Z,6.44
2022-11-18T06:41:20.916Z,6.32
2022-11-18T06:43:51.374Z,6.77
2022-11-18T06:46:39.347Z,6.74
2022-11-18T06:49:10.271Z,6.89
2022-11-18T06:51:41.229Z,6.75
2022-11-18T06:54:11.836Z,7.03
2022-11-18T06:56:42.780Z,7.57
2022-11-18T06:59:13.541Z,7.04
2022-11-18T07:01:44.270Z,5.55
2022-11-18T07:04:14.952Z,6.04
2022-11-18T07:06:45.503Z,6.72
2022-11-18T07:09:16.216Z,6.98
2022-11-18T07:11:47.067Z,7.09
2022-11-18T07:14:17.964Z,7.31
2022-11-18T07:16:48.743Z,7.12
2022-11-18T07:19:19.591Z,5.76
2022-11-18T07:21:51.242Z,5.69
2022-11-18T07:24:21.692Z,6.45
2022-11-18T07:26:54.280Z,6.99
2022-11-18T07:29:24.973Z,7.10
2022-11-18T07:31:55.639Z,7.04
2022-11-18T07:34:26.070Z,7.37
2022-11-18T07:36:56.650Z,7.66
2022-11-18T07:39:27.038Z,7.92
2022-11-18T07:41:57.501Z,7.01
2022-11-18T07:44:28.142Z,5.64
2022-11-18T07:46:58.770Z,5.99
2022-11-18T07:49:29.201Z,6.75
2022-11-18T07:51:59.760Z,7.18
2022-11-18T07:54:30.261Z,7.51
2022-11-18T07:57:00.976Z,7.22
2022-11-18T07:59:31.366Z,5.83
2022-11-18T08:02:02.109Z,5.11
2022-11-18T08:04:32.678Z,5.76
2022-11-18T08:07:03.166Z,6.43
2022-11-18T08:09:33.810Z,6.88
2022-11-18T08:12:04.315Z,7.11
2022-11-18T08:14:35.308Z,7.20
2022-11-18T08:17:05.834Z,7.27
2022-11-18T08:19:36.610Z,7.44
2022-11-18T08:22:07.227Z,6.10
2022-11-18T08:24:37.713Z,5.10
2022-11-18T08:27:08.141Z,5.83
2022-11-18T08:29:38.842Z,6.56
2022-11-18T08:32:09.507Z,7.28
2022-11-18T08:34:40.410Z,7.44
2022-11-18T08:37:10.770Z,6.92
2022-11-18T08:39:41.523Z,5.68
2022-11-18T08:42:12.127Z,5.96
2022-11-18T08:44:42.975Z,6.64
2022-11-18T08:47:13.285Z,7.09
2022-11-18T08:49:44.286Z,7.32
2022-11-18T08:52:14.565Z,6.57
2022-11-18T08:54:45.550Z,5.33
2022-11-18T08:57:16.130Z,5.03
2022-11-18T08:59:47.024Z,5.79
2022-11-18T09:02:18.003Z,6.53
2022-11-18T09:04:49.441Z,7.28
2022-11-18T09:07:20.071Z,7.07
2022-11-18T09:09:51.192Z,5.86
2022-11-18T09:12:21.443Z,6.30
2022-11-18T09:15:13.052Z,6.69
2022-11-18T09:17:42.876Z,7.20
2022-11-18T09:20:20.975Z,7.59
2022-11-18T09:22:51.211Z,6.79
2022-11-18T09:25:22.445Z,5.47
2022-11-18T09:27:52.778Z,5.15
2022-11-18T09:30:23.419Z,6.05
2022-11-18T09:32:53.727Z,6.80
2022-11-18T09:35:24.562Z,7.27
2022-11-18T09:37:55.301Z,7.43
2022-11-18T09:40:26.148Z,6.85
2022-11-18T09:43:00.759Z,5.36
2022-11-18T09:45:34.504Z,5.54
2022-11-18T09:48:13.233Z,5.98
2022-11-18T09:50:51.354Z,6.61
2022-11-18T09:53:22.753Z,6.54
2022-11-18T09:55:53.964Z,5.42
2022-11-18T09:58:32.588Z,4.81
2022-11-18T10:01:03.433Z,5.77
2022-11-18T10:03:34.368Z,6.47
2022-11-18T10:06:19.163Z,6.73
2022-11-18T10:08:59.502Z,6.66
2022-11-18T10:11:34.245Z,5.32
2022-11-18T10:14:16.211Z,4.74
2022-11-18T10:16:53.878Z,5.67
2022-11-18T10:19:31.503Z,6.67
2022-11-18T10:22:16.719Z,6.75
2022-11-18T10:24:52.056Z,5.51
2022-11-18T10:27:23.276Z,4.81
2022-11-18T10:29:56.557Z,5.54
2022-11-18T10:32:27.231Z,6.38
2022-11-18T10:34:58.644Z,6.80
2022-11-18T10:38:00.271Z,6.91
2022-11-18T10:40:27.170Z,5.68
2022-11-18T10:42:57.971Z,5.03
2022-11-18T10:45:29.533Z,5.89
2022-11-18T10:48:08.227Z,6.60
2022-11-18T10:50:39.651Z,6.87
2022-11-18T10:53:25.966Z,5.34
2022-11-18T10:56:00.730Z,4.35
2022-11-18T10:58:32.293Z,4.98
2022-11-18T11:01:07.940Z,5.88
2022-11-18T11:03:39.378Z,6.17
2022-11-18T11:06:29.923Z,6.42
2022-11-18T11:09:01.750Z,6.85
2022-11-18T11:11:33.219Z,6.99
2022-11-18T11:14:14.676Z,5.88
2022-11-18T11:16:48.261Z,4.84
2022-11-18T11:19:21.155Z,5.58
2022-11-18T11:21:51.951Z,6.64
2022-11-18T11:24:25.288Z,5.83
2022-11-18T11:30:13.119Z,5.27
2022-11-18T11:32:51.085Z,5.92
2022-11-18T11:35:24.115Z,6.42
2022-11-18T11:37:57.008Z,5.32
2022-11-18T11:40:30.786Z,4.20
2022-11-18T11:43:07.270Z,5.11
2022-11-18T11:45:42.411Z,6.29
2022-11-18T11:48:19.796Z,5.42
2022-11-18T11:51:04.398Z,4.15
2022-11-18T11:54:04.069Z,4.38
2022-11-18T11:56:36.434Z,5.53
2022-11-18T11:59:12.138Z,6.23
2022-11-18T12:01:48.927Z,4.97
2022-11-18T12:04:26.296Z,4.05
2022-11-18T12:06:57.453Z,4.62
2022-11-18T12:09:35.559Z,5.01
2022-11-18T12:12:30.498Z,5.75
2022-11-18T12:15:04.710Z,5.65
2022-11-18T12:17:39.803Z,4.19
2022-11-18T12:20:23.911Z,4.33
2022-11-18T12:23:11.939Z,5.22
2022-11-18T12:25:52.553Z,5.70
2022-11-18T12:28:27.148Z,5.69
2022-11-18T12:31:23.574Z,4.38
2022-11-18T12:33:54.851Z,4.05
2022-11-18T12:36:29.482Z,5.52
2022-11-18T12:39:00.277Z,5.93
2022-11-18T12:44:41.117Z,3.71
2022-11-18T12:47:13.053Z,4.45
2022-11-18T12:50:03.204Z,5.81
2022-11-18T12:52:49.603Z,5.23
2022-11-18T12:55:22.851Z,3.67
2022-11-18T12:57:51.883Z,3.70
2022-11-18T13:00:31.441Z,4.58
2022-11-18T13:03:03.495Z,5.28
2022-11-18T13:05:34.798Z,5.41
2022-11-18T13:08:15.872Z,5.85
2022-11-18T13:10:55.929Z,5.41
2022-11-18T13:13:28.641Z,3.98
2022-11-18T13:16:18.533Z,3.68
2022-11-18T13:18:52.792Z,4.65
2022-11-18T13:21:42.871Z,5.42
2022-11-18T13:24:17.870Z,5.31
2022-11-18T13:26:49.322Z,3.91
2022-11-18T13:29:23.422Z,3.68
2022-11-18T13:31:58.587Z,4.84
2022-11-18T13:34:30.113Z,5.23
2022-11-18T13:37:01.820Z,4.22
2022-11-18T13:39:33.227Z,3.61
2022-11-18T13:42:05.151Z,4.34
2022-11-18T13:44:36.577Z,5.28
2022-11-18T13:47:10.825Z,4.45
2022-11-18T13:49:50.590Z,3.21
2022-11-18T13:52:23.906Z,2.93
2022-11-18T13:54:55.893Z,4.14
2022-11-18T13:57:27.269Z,5.17
2022-11-18T14:00:02.542Z,4.77
2022-11-18T14:02:39.528Z,3.37
2022-11-18T14:05:21.558Z,3.17
2022-11-18T14:08:00.527Z,4.08
2022-11-18T14:10:39.241Z,4.70
2022-11-18T14:13:17.894Z,4.51
2022-11-18T14:15:48.610Z,3.30
2022-11-18T14:18:32.766Z,2.63
2022-11-18T14:21:04.025Z,3.64
2022-11-18T14:23:36.589Z,4.87
2022-11-18T14:26:08.434Z,4.50
2022-11-18T14:28:39.179Z,3.34
2022-11-18T14:31:23.323Z,2.45
2022-11-18T14:34:07.522Z,2.19
2022-11-18T14:36:41.040Z,3.42
2022-11-18T14:39:26.374Z,4.39
2022-11-18T14:41:58.508Z,4.96
2022-11-18T14:44:30.827Z,3.91
2022-11-18T14:47:03.114Z,2.91
2022-11-18T14:49:34.411Z,2.26
2022-11-18T14:52:05.121Z,2.18
2022-11-18T14:54:36.134Z,3.43
2022-11-18T14:57:06.947Z,4.36
2022-11-18T14:59:37.632Z,3.60
2022-11-18T15:02:13.924Z,2.65
2022-11-18T15:04:44.650Z,2.47
2022-11-18T15:07:22.821Z,3.77
2022-11-18T15:09:53.985Z,4.67
2022-11-18T15:12:24.508Z,3.70
2022-11-18T15:14:55.037Z,2.77
2022-11-18T15:17:25.881Z,2.26
2022-11-18T15:19:57.115Z,3.18
2022-11-18T15:22:27.754Z,4.34
2022-11-18T15:24:58.531Z,4.32
2022-11-18T15:27:29.119Z,3.41
2022-11-18T15:30:01.813Z,2.55
2022-11-18T15:32:32.635Z,3.29
2022-11-18T15:35:03.461Z,4.12
2022-11-18T15:37:34.297Z,3.44
2022-11-18T15:40:05.027Z,2.50
2022-11-18T15:42:45.020Z,2.12
2022-11-18T15:45:20.423Z,3.28
2022-11-18T15:47:52.690Z,4.28
2022-11-18T15:50:23.224Z,4.02
2022-11-18T15:52:55.505Z,3.04
2022-11-18T15:55:26.136Z,2.37
2022-11-18T15:57:56.754Z,3.20
2022-11-18T16:00:27.556Z,4.28
2022-11-18T16:02:58.117Z,3.90
2022-11-18T16:05:28.805Z,2.94
2022-11-18T16:08:00.097Z,2.32
2022-11-18T16:10:49.443Z,3.48
2022-11-18T16:13:22.957Z,3.81
2022-11-18T16:15:53.944Z,2.76
2022-11-18T16:18:25.365Z,2.03
2022-11-18T16:21:00.110Z,2.32
2022-11-18T16:23:30.904Z,3.50
2022-11-18T16:26:03.661Z,4.01
2022-11-18T16:28:34.969Z,3.30
2022-11-18T16:31:22.159Z,2.49
2022-11-18T16:33:54.231Z,1.83
2022-11-18T16:36:28.482Z,1.61
2022-11-18T16:39:00.314Z,2.92
2022-11-18T16:41:35.073Z,4.06
2022-11-18T16:44:08.476Z,3.37
2022-11-18T16:46:40.972Z,2.38
2022-11-18T16:49:14.414Z,1.67
2022-11-18T16:54:34.958Z,2.68
2022-11-18T16:57:07.618Z,3.77
2022-11-18T16:59:41.306Z,3.45
2022-11-18T17:02:21.617Z,2.60
2022-11-18T17:04:54.821Z,1.90
2022-11-18T17:07:38.520Z,1.48
2022-11-18T17:10:22.470Z,1.25
2022-11-18T17:12:58.056Z,2.32
2022-11-18T17:15:35.467Z,3.80
2022-11-18T17:18:11.755Z,3.77
2022-11-18T17:20:46.954Z,2.83
2022-11-18T17:23:18.567Z,2.08
2022-11-18T17:25:52.414Z,1.64
2022-11-18T17:28:29.300Z,2.75
2022-11-18T17:31:06.884Z,3.78
2022-11-18T17:33:39.775Z,3.17
2022-11-18T17:36:13.654Z,2.32
2022-11-18T17:38:45.841Z,1.75
2022-11-18T17:41:31.883Z,1.62
2022-11-18T17:44:03.700Z,2.93
2022-11-18T17:46:37.991Z,3.83
2022-11-18T17:49:12.531Z,3.25
2022-11-18T17:51:43.271Z,2.35
2022-11-18T17:54:14.610Z,1.70
2022-11-18T17:56:45.169Z,2.13
2022-11-18T17:59:17.534Z,3.57
2022-11-18T18:01:49.864Z,4.47
2022-11-18T18:04:22.619Z,3.60
2022-11-18T18:06:53.762Z,2.54
2022-11-18T18:09:30.635Z,1.85
2022-11-18T18:12:22.042Z,1.38
2022-11-18T18:14:52.691Z,1.58
2022-11-18T18:17:23.157Z,2.79
2022-11-18T18:19:53.726Z,3.47
2022-11-18T18:22:24.415Z,2.84
2022-11-18T18:24:55.062Z,2.02
2022-11-18T18:27:25.670Z,1.68
2022-11-18T18:29:56.956Z,2.80
2022-11-18T18:32:27.400Z,3.72
2022-11-18T18:35:00.226Z,3.07
2022-11-18T18:37:30.698Z,2.26
2022-11-18T18:40:01.362Z,1.64
2022-11-18T18:42:31.986Z,1.39
2022-11-18T18:45:20.075Z,2.63
2022-11-18T18:47:51.482Z,3.55
2022-11-18T18:50:26.612Z,2.86
2022-11-18T18:53:00.261Z,2.06
2022-11-18T18:55:32.013Z,1.39
2022-11-18T18:58:03.151Z,0.93
2022-11-18T19:00:33.939Z,0.84
2022-11-18T19:03:04.472Z,2.43
2022-11-18T19:06:12.277Z,3.47
2022-11-18T19:08:27.504Z,2.58
2022-11-18T19:10:58.628Z,1.82
2022-11-18T19:13:30.795Z,1.30
2022-11-18T19:16:05.606Z,0.97
2022-11-18T19:18:36.793Z,0.65
2022-11-18T19:21:11.308Z,0.87
2022-11-18T19:23:41.820Z,2.43
2022-11-18T19:26:13.010Z,3.13
2022-11-18T19:28:44.115Z,2.46
2022-11-18T19:31:16.018Z,1.68
2022-11-18T19:33:46.598Z,1.13
2022-11-18T19:36:18.009Z,0.79
2022-11-18T19:38:50.108Z,1.08
2022-11-18T19:41:21.665Z,2.40
2022-11-18T19:43:52.501Z,3.36
2022-11-18T19:46:25.489Z,2.61
2022-11-18T19:48:59.599Z,1.90
2022-11-18T19:51:31.298Z,1.36
2022-11-18T19:54:02.082Z,0.89
2022-11-18T19:56:33.023Z,1.17
2022-11-18T19:59:03.557Z,2.82
2022-11-18T20:01:34.338Z,3.90
2022-11-18T20:04:05.953Z,3.04
2022-11-18T20:06:37.392Z,2.23
2022-11-18T20:09:09.199Z,1.57
2022-11-18T20:11:40.139Z,1.12
2022-11-18T20:14:12.705Z,1.32
2022-11-18T20:16:43.388Z,2.83
2022-11-18T20:19:14.233Z,3.62
2022-11-18T20:21:45.007Z,2.97
2022-11-18T20:24:16.964Z,2.10
2022-11-18T20:26:49.085Z,1.51
2022-11-18T20:29:20.345Z,1.05
2022-11-18T20:31:51.511Z,1.07
2022-11-18T20:34:22.313Z,2.57
2022-11-18T20:36:53.400Z,3.83
2022-11-18T20:39:24.083Z,3.08
2022-11-18T20:42:12.428Z,2.10
2022-11-18T20:44:43.679Z,1.35
2022-11-18T20:47:14.366Z,1.20
2022-11-18T20:49:45.038Z,2.34
2022-11-18T20:52:15.573Z,3.52
2022-11-18T20:54:47.017Z,2.98
2022-11-18T20:57:17.601Z,2.11
2022-11-18T20:59:48.389Z,1.47
2022-11-18T21:02:18.881Z,0.99
2022-11-18T21:04:52.820Z,0.63
2022-11-18T21:07:23.543Z,0.37
2022-11-18T21:09:54.691Z,1.14
2022-11-18T21:12:25.021Z,2.94
2022-11-18T21:14:55.681Z,3.77
2022-11-18T21:17:26.174Z,3.02
2022-11-18T21:20:16.878Z,2.18
2022-11-18T21:22:47.346Z,1.55
2022-11-18T21:25:18.242Z,1.12
2022-11-18T21:27:48.986Z,0.77
2022-11-18T21:30:20.548Z,0.49
2022-11-18T21:32:51.470Z,0.28
2022-11-18T21:35:22.613Z,0.11
2022-11-18T21:37:53.033Z,-0.04
2022-11-18T21:40:23.970Z,-0.17
2022-11-18T21:42:54.503Z,-0.27
2022-11-18T21:45:25.202Z,-0.30
2022-11-18T21:47:55.596Z,0.70
2022-11-18T21:50:27.467Z,2.56
2022-11-18T21:52:57.942Z,3.00
2022-11-18T21:55:29.291Z,2.19
2022-11-18T21:58:02.978Z,1.56
2022-11-18T22:00:35.260Z,1.09
2022-11-18T22:03:06.408Z,0.80
2022-11-18T22:05:37.655Z,0.56
2022-11-18T22:08:11.312Z,1.71
2022-11-18T22:10:45.994Z,3.33
2022-11-18T22:13:16.454Z,3.05
2022-11-18T22:15:47.600Z,2.28
2022-11-18T22:18:18.187Z,1.52
2022-11-18T22:20:49.065Z,1.18
2022-11-18T22:23:21.863Z,2.41
2022-11-18T22:25:58.278Z,3.70
2022-11-18T22:28:28.714Z,3.46
2022-11-18T22:31:04.960Z,2.48
2022-11-18T22:33:35.729Z,1.75
2022-11-18T22:36:07.884Z,1.19
2022-11-18T22:38:38.790Z,2.62
2022-11-18T22:41:31.752Z,4.13
2022-11-18T22:44:06.994Z,3.44
2022-11-18T22:46:39.052Z,2.13
2022-11-18T22:49:10.289Z,1.33
2022-11-18T22:51:41.480Z,1.49
2022-11-18T22:57:03.382Z,3.80
2022-11-18T22:59:33.756Z,2.64
2022-11-18T23:02:04.640Z,1.70
2022-11-18T23:04:35.071Z,1.05
2022-11-18T23:07:05.750Z,1.79
2022-11-18T23:09:36.339Z,3.44
2022-11-18T23:12:24.723Z,3.12
2022-11-18T23:14:55.202Z,2.09
2022-11-18T23:17:26.106Z,1.28
2022-11-18T23:19:56.466Z,1.59
2022-11-18T23:22:27.556Z,3.24
2022-11-18T23:24:57.904Z,3.91
2022-11-18T23:27:28.891Z,2.89
2022-11-18T23:29:59.401Z,2.03
2022-11-18T23:32:30.639Z,1.39
2022-11-18T23:35:01.172Z,1.97
2022-11-18T23:37:32.216Z,3.39
2022-11-18T23:40:02.841Z,2.67
2022-11-18T23:42:33.594Z,1.65
2022-11-18T23:45:05.552Z,1.75
2022-11-18T23:47:38.828Z,3.25
2022-11-18T23:50:10.240Z,3.23
2022-11-18T23:52:42.144Z,2.32
2022-11-18T23:55:12.670Z,1.54
2022-11-18T23:57:43.566Z,1.38
